DJR weather

Dajarra Airport
Queensland, Australia

Public forecast

Using degrees Celsius for public forecast. Weather courtesy of forecast.io.

Closest aviation weather report (METAR) to Dajarra Airport

Closest report is Mount Isa Airport, 62.8 nm (116.2 km) N. Retrieved 2019/10/20 15:30 UTC (58 seconds ago):

YBMA 201530Z AUTO 18010KT 9999 // NCD 23/M09 Q1018 RF000/0000

Closest aviation forecast (TAF) to Dajarra Airport

Closest forecast is Mount Isa Airport, 62.8 nm (116.2 km) N. Retrieved 2019/10/20 12:03 UTC (3 hours ago):

TAF TAF YBMA 201005Z 2012/2024 16010KT CAVOK FM202200 13015G25KT CAVOK